createdAt,value
2023-05-08T00:01:30.008Z,102243.38
2023-05-08T00:03:56.884Z,102239.84
2023-05-08T00:06:23.715Z,102247.00
2023-05-08T00:08:50.292Z,102247.06
2023-05-08T00:11:16.802Z,102254.16
2023-05-08T00:13:43.405Z,102241.88
2023-05-08T00:16:11.470Z,102241.00
2023-05-08T00:18:38.887Z,102239.19
2023-05-08T00:21:06.776Z,102230.34
2023-05-08T00:23:33.713Z,102229.47
2023-05-08T00:26:00.255Z,102225.91
2023-05-08T00:28:27.103Z,102225.94
2023-05-08T00:30:54.044Z,102223.41
2023-05-08T00:33:20.638Z,102219.88
2023-05-08T00:35:47.302Z,102226.13
2023-05-08T00:38:13.887Z,102221.75
2023-05-08T00:40:40.477Z,102219.97
2023-05-08T00:43:07.061Z,102231.66
2023-05-08T00:45:37.688Z,102225.44
2023-05-08T00:48:05.061Z,102225.44
2023-05-08T00:50:32.972Z,102232.66
2023-05-08T00:53:02.793Z,102225.59
2023-05-08T00:55:30.104Z,102225.66
2023-05-08T00:57:57.237Z,102224.81
2023-05-08T01:00:24.627Z,102221.28
2023-05-08T01:02:51.850Z,102217.72
2023-05-08T01:05:18.555Z,102230.22
2023-05-08T01:07:45.763Z,102225.78
2023-05-08T01:10:12.506Z,102223.25
2023-05-08T01:13:08.634Z,102223.25
2023-05-08T01:15:47.649Z,102229.47
2023-05-08T01:18:14.145Z,102230.38
2023-05-08T01:21:03.205Z,102225.91
2023-05-08T01:23:53.024Z,102229.47
2023-05-08T01:26:47.649Z,102226.84
2023-05-08T01:29:42.524Z,102227.78
2023-05-08T01:32:38.982Z,102227.78
2023-05-08T01:35:12.521Z,102231.38
2023-05-08T01:37:52.935Z,102230.53
2023-05-08T01:40:25.076Z,102238.63
2023-05-08T01:43:10.731Z,102241.31
2023-05-08T01:45:46.728Z,102237.00
2023-05-08T01:48:35.884Z,102232.56
2023-05-08T01:51:08.521Z,102230.81
2023-05-08T01:53:41.458Z,102230.84
2023-05-08T01:56:17.131Z,102238.00
2023-05-08T01:58:45.382Z,102233.59
2023-05-08T02:01:15.349Z,102236.34
2023-05-08T02:03:45.806Z,102247.97
2023-05-08T02:06:17.780Z,102243.53
2023-05-08T02:08:57.713Z,102248.13
2023-05-08T02:11:26.112Z,102259.69
2023-05-08T02:13:53.879Z,102254.31
2023-05-08T02:16:22.771Z,102256.09
2023-05-08T02:18:53.996Z,102240.03
2023-05-08T02:21:22.937Z,102248.97
2023-05-08T02:23:52.512Z,102249.88
2023-05-08T02:26:22.258Z,102248.09
2023-05-08T02:28:53.037Z,102257.00
2023-05-08T02:31:20.930Z,102252.56
2023-05-08T02:33:50.370Z,102255.25
2023-05-08T02:36:19.088Z,102256.22
2023-05-08T02:38:50.896Z,102251.75
2023-05-08T02:41:22.285Z,102268.69
2023-05-08T02:43:51.864Z,102262.53
2023-05-08T02:46:22.569Z,102259.78
2023-05-08T02:49:01.811Z,102259.72
2023-05-08T02:51:47.954Z,102258.75
2023-05-08T02:55:00.710Z,102257.88
2023-05-08T02:57:46.692Z,102252.59
2023-05-08T03:00:28.964Z,102255.28
2023-05-08T03:03:20.776Z,102246.38
2023-05-08T03:05:53.248Z,102250.81
2023-05-08T03:08:27.608Z,102247.25
2023-05-08T03:10:59.090Z,102241.03
2023-05-08T03:13:29.704Z,102244.66
2023-05-08T03:16:04.100Z,102238.44
2023-05-08T03:18:38.417Z,102235.75
2023-05-08T03:21:08.924Z,102236.75
2023-05-08T03:23:39.050Z,102233.22
2023-05-08T03:26:07.739Z,102234.09
2023-05-08T03:28:37.809Z,102235.00
2023-05-08T03:31:06.352Z,102238.66
2023-05-08T03:33:37.187Z,102241.38
2023-05-08T03:36:04.212Z,102236.94
2023-05-08T03:38:31.161Z,102244.94
2023-05-08T03:40:59.269Z,102238.78
2023-05-08T03:43:27.796Z,102237.00
2023-05-08T03:45:57.200Z,102233.47
2023-05-08T03:48:24.577Z,102235.34
2023-05-08T03:50:52.039Z,102235.34
2023-05-08T03:53:18.644Z,102227.38
2023-05-08T03:55:45.611Z,102222.97
2023-05-08T03:58:28.577Z,102229.19
2023-05-08T04:01:17.410Z,102223.03
2023-05-08T04:03:56.389Z,102232.88
2023-05-08T04:06:30.764Z,102233.81
2023-05-08T04:09:13.253Z,102232.06
2023-05-08T04:12:04.651Z,102227.66
2023-05-08T04:14:45.437Z,102240.19
2023-05-08T04:17:17.892Z,102243.78
2023-05-08T04:19:48.481Z,102242.91
2023-05-08T04:22:20.282Z,102242.03
2023-05-08T04:24:50.713Z,102246.44
2023-05-08T04:27:17.639Z,102247.38
2023-05-08T04:29:44.752Z,102249.13
2023-05-08T04:32:12.432Z,102245.59
2023-05-08T04:34:39.813Z,102244.69
2023-05-08T04:37:07.907Z,102242.00
2023-05-08T04:39:34.465Z,102249.06
2023-05-08T04:42:04.752Z,102250.84
2023-05-08T04:44:32.158Z,102249.97
2023-05-08T04:46:58.704Z,102254.28
2023-05-08T04:49:25.297Z,102261.38
2023-05-08T04:51:51.911Z,102257.78
2023-05-08T04:54:18.537Z,102257.72
2023-05-08T04:56:45.083Z,102257.69
2023-05-08T04:59:12.474Z,102268.31
2023-05-08T05:01:40.359Z,102267.34
2023-05-08T05:04:07.296Z,102262.88
2023-05-08T05:06:34.219Z,102272.59
2023-05-08T05:09:00.927Z,102275.22
2023-05-08T05:11:27.853Z,102274.22
2023-05-08T05:13:54.488Z,102282.09
2023-05-08T05:16:21.362Z,102283.75
2023-05-08T05:18:48.116Z,102275.59
2023-05-08T05:21:14.729Z,102282.47
2023-05-08T05:23:41.441Z,102286.72
2023-05-08T05:26:08.179Z,102282.94
2023-05-08T05:28:34.784Z,102281.81
2023-05-08T05:31:01.610Z,102286.97
2023-05-08T05:33:28.429Z,102281.50
2023-05-08T05:35:55.015Z,102290.28
2023-05-08T05:38:21.633Z,102283.84
2023-05-08T05:40:50.683Z,102289.97
2023-05-08T05:43:19.694Z,102279.94
2023-05-08T05:45:46.372Z,102283.19
2023-05-08T05:48:13.023Z,102288.28
2023-05-08T05:50:39.626Z,102287.09
2023-05-08T05:53:06.308Z,102293.13
2023-05-08T05:55:33.010Z,102288.47
2023-05-08T05:57:59.756Z,102294.47
2023-05-08T06:00:26.407Z,102295.94
2023-05-08T06:02:53.205Z,102295.72
2023-05-08T06:05:20.001Z,102299.78
2023-05-08T06:07:46.620Z,102288.75
2023-05-08T06:10:13.345Z,102299.22
2023-05-08T06:12:40.211Z,102295.28
2023-05-08T06:15:07.828Z,102293.09
2023-05-08T06:17:34.686Z,102289.25
2023-05-08T06:20:01.333Z,102288.69
2023-05-08T06:22:29.237Z,102295.00
2023-05-08T06:24:57.160Z,102292.28
2023-05-08T06:27:23.836Z,102286.19
2023-05-08T06:29:53.107Z,102286.09
2023-05-08T06:32:21.297Z,102298.34
2023-05-08T06:34:48.798Z,102299.22
2023-05-08T06:37:15.540Z,102296.28
2023-05-08T06:39:42.348Z,102295.28
2023-05-08T06:42:09.143Z,102297.91
2023-05-08T06:44:36.288Z,102292.50
2023-05-08T06:47:02.995Z,102297.69
2023-05-08T06:49:29.719Z,102296.41
2023-05-08T06:51:57.989Z,102300.22
2023-05-08T06:54:24.971Z,102292.88
2023-05-08T06:56:54.196Z,102296.22
2023-05-08T06:59:21.436Z,102295.13
2023-05-08T07:01:48.076Z,102290.56
2023-05-08T07:04:14.890Z,102295.63
2023-05-08T07:06:41.557Z,102302.00
2023-05-08T07:09:08.632Z,102300.00
2023-05-08T07:11:35.368Z,102297.66
2023-05-08T07:14:01.975Z,102300.03
2023-05-08T07:16:28.613Z,102296.38
2023-05-08T07:18:55.325Z,102293.16
2023-05-08T07:21:21.907Z,102296.63
2023-05-08T07:23:51.574Z,102299.47
2023-05-08T07:26:18.669Z,102296.56
2023-05-08T07:28:45.279Z,102298.78
2023-05-08T07:31:12.178Z,102300.19
2023-05-08T07:33:38.830Z,102293.50
2023-05-08T07:36:05.659Z,102302.03
2023-05-08T07:38:32.264Z,102294.88
2023-05-08T07:41:00.672Z,102293.00
2023-05-08T07:43:27.730Z,102289.75
2023-05-08T07:45:54.347Z,102293.28
2023-05-08T07:48:21.218Z,102282.13
2023-05-08T07:50:49.926Z,102282.06
2023-05-08T07:53:17.138Z,102287.38
2023-05-08T07:55:43.826Z,102286.56
2023-05-08T07:58:10.458Z,102288.63
2023-05-08T08:00:37.799Z,102292.63
2023-05-08T08:03:04.589Z,102295.31
2023-05-08T08:05:31.266Z,102294.16
2023-05-08T08:07:57.837Z,102290.63
2023-05-08T08:10:24.363Z,102289.75
2023-05-08T08:12:51.180Z,102296.78
2023-05-08T08:15:17.883Z,102291.19
2023-05-08T08:17:44.485Z,102297.66
2023-05-08T08:20:11.453Z,102299.66
2023-05-08T08:22:38.041Z,102299.47
2023-05-08T08:25:04.839Z,102300.53
2023-05-08T08:27:31.772Z,102300.53
2023-05-08T08:30:12.185Z,102290.38
2023-05-08T08:32:43.258Z,102290.19
2023-05-08T08:35:10.226Z,102296.34
2023-05-08T08:37:36.920Z,102288.09
2023-05-08T08:40:03.941Z,102287.31
2023-05-08T08:42:31.621Z,102286.50
2023-05-08T08:44:58.656Z,102288.16
2023-05-08T08:47:29.722Z,102281.59
2023-05-08T08:50:02.952Z,102278.44
2023-05-08T08:52:54.049Z,102280.34
2023-05-08T08:55:23.694Z,102283.31
2023-05-08T08:58:03.145Z,102275.63
2023-05-08T09:00:32.904Z,102283.56
2023-05-08T09:03:00.056Z,102283.06
2023-05-08T09:05:29.483Z,102284.69
2023-05-08T09:07:56.223Z,102293.09
2023-05-08T09:10:24.657Z,102283.84
2023-05-08T09:12:51.879Z,102285.13
2023-05-08T09:15:19.561Z,102284.53
2023-05-08T09:17:46.254Z,102286.22
2023-05-08T09:20:16.195Z,102279.28
2023-05-08T09:22:43.692Z,102281.41
2023-05-08T09:25:10.861Z,102282.59
2023-05-08T09:27:37.548Z,102287.56
2023-05-08T09:30:09.284Z,102289.50
2023-05-08T09:32:38.504Z,102279.47
2023-05-08T09:35:06.906Z,102280.41
2023-05-08T09:37:33.941Z,102288.84
2023-05-08T09:40:15.608Z,102282.41
2023-05-08T09:42:42.270Z,102284.88
2023-05-08T09:45:09.421Z,102282.53
2023-05-08T09:47:37.435Z,102278.66
2023-05-08T09:50:05.862Z,102284.44
2023-05-08T09:52:34.562Z,102285.63
2023-05-08T09:55:06.853Z,102280.22
2023-05-08T09:57:38.185Z,102292.53
2023-05-08T10:00:14.689Z,102282.34
2023-05-08T10:02:53.527Z,102289.84
2023-05-08T10:05:34.807Z,102286.22
2023-05-08T10:08:21.080Z,102286.22
2023-05-08T10:10:47.944Z,102280.63
2023-05-08T10:13:14.935Z,102285.16
2023-05-08T10:15:45.073Z,102286.69
2023-05-08T10:18:12.194Z,102287.06
2023-05-08T10:20:41.455Z,102285.34
2023-05-08T10:23:13.676Z,102292.94
2023-05-08T10:25:48.333Z,102286.19
2023-05-08T10:28:33.357Z,102293.06
2023-05-08T10:31:02.859Z,102287.56
2023-05-08T10:33:34.049Z,102286.09
2023-05-08T10:36:00.698Z,102280.06
2023-05-08T10:38:28.026Z,102285.91
2023-05-08T10:40:58.282Z,102285.03
2023-05-08T10:43:25.781Z,102288.63
2023-05-08T10:45:55.426Z,102282.63
2023-05-08T10:48:27.852Z,102282.53
2023-05-08T10:51:05.285Z,102288.34
2023-05-08T10:53:40.742Z,102280.34
2023-05-08T10:56:07.363Z,102280.63
2023-05-08T10:58:37.619Z,102278.59
2023-05-08T11:01:07.927Z,102281.94
2023-05-08T11:03:44.717Z,102283.34
2023-05-08T11:06:12.329Z,102284.63
2023-05-08T11:08:54.638Z,102278.91
2023-05-08T11:11:41.021Z,102277.25
2023-05-08T11:14:07.504Z,102280.28
2023-05-08T11:17:01.901Z,102275.97
2023-05-08T11:19:29.181Z,102275.41
2023-05-08T11:22:11.018Z,102269.81
2023-05-08T11:24:40.765Z,102263.72
2023-05-08T11:27:07.708Z,102268.94
2023-05-08T11:29:34.228Z,102268.47
2023-05-08T11:32:00.975Z,102263.28
2023-05-08T11:34:43.141Z,102260.97
2023-05-08T11:37:10.991Z,102256.72
2023-05-08T11:39:37.658Z,102253.06
2023-05-08T11:42:27.040Z,102252.84
2023-05-08T11:45:13.078Z,102256.31
2023-05-08T11:47:41.361Z,102247.72
2023-05-08T11:50:09.557Z,102242.50
2023-05-08T11:52:38.841Z,102243.44
2023-05-08T11:55:10.288Z,102244.41
2023-05-08T11:57:36.974Z,102245.44
2023-05-08T12:00:08.699Z,102242.28
2023-05-08T12:02:40.542Z,102244.75
2023-05-08T12:05:08.646Z,102243.44
2023-05-08T12:07:48.544Z,102246.78
2023-05-08T12:10:16.856Z,102242.41
2023-05-08T12:12:45.019Z,102238.91
2023-05-08T12:15:14.784Z,102242.72
2023-05-08T12:17:42.627Z,102239.97
2023-05-08T12:20:15.428Z,102232.13
2023-05-08T12:22:49.474Z,102227.50
2023-05-08T12:25:17.813Z,102221.94
2023-05-08T12:27:46.605Z,102236.94
2023-05-08T12:30:14.920Z,102226.47
2023-05-08T12:32:43.803Z,102225.28
2023-05-08T12:35:12.150Z,102221.06
2023-05-08T12:37:39.411Z,102226.47
2023-05-08T12:40:07.181Z,102221.78
2023-05-08T12:42:43.659Z,102218.03
2023-05-08T12:45:17.575Z,102221.22
2023-05-08T12:47:53.314Z,102210.81
2023-05-08T12:50:21.718Z,102209.50
2023-05-08T12:52:51.109Z,102208.34
2023-05-08T12:55:26.807Z,102199.19
2023-05-08T12:58:09.122Z,102193.31
2023-05-08T13:00:38.243Z,102199.59
2023-05-08T13:03:05.910Z,102186.00
2023-05-08T13:05:32.546Z,102191.78
2023-05-08T13:08:07.445Z,102178.72
2023-05-08T13:10:47.841Z,102189.31
2023-05-08T13:13:17.221Z,102184.16
2023-05-08T13:15:43.988Z,102187.03
2023-05-08T13:18:11.332Z,102181.59
2023-05-08T13:20:39.180Z,102185.81
2023-05-08T13:23:06.454Z,102189.34
2023-05-08T13:25:33.953Z,102185.22
2023-05-08T13:28:00.846Z,102186.38
2023-05-08T13:30:27.777Z,102183.38
2023-05-08T13:32:56.600Z,102180.00
2023-05-08T13:35:23.726Z,102184.59
2023-05-08T13:37:50.886Z,102176.41
2023-05-08T13:40:18.363Z,102175.03
2023-05-08T13:42:44.953Z,102179.06
2023-05-08T13:45:14.559Z,102179.22
2023-05-08T13:47:45.877Z,102178.47
2023-05-08T13:50:14.446Z,102176.59
2023-05-08T13:52:41.269Z,102169.56
2023-05-08T13:55:10.346Z,102173.66
2023-05-08T13:57:36.955Z,102163.78
2023-05-08T14:00:08.868Z,102163.25
2023-05-08T14:02:37.217Z,102160.31
2023-05-08T14:05:05.186Z,102156.81
2023-05-08T14:07:31.923Z,102156.97
2023-05-08T14:09:58.617Z,102159.78
2023-05-08T14:12:25.369Z,102156.09
2023-05-08T14:14:52.054Z,102160.81
2023-05-08T14:17:18.736Z,102149.53
2023-05-08T14:19:46.133Z,102147.09
2023-05-08T14:22:12.888Z,102148.94
2023-05-08T14:24:39.978Z,102150.84
2023-05-08T14:27:06.660Z,102153.56
2023-05-08T14:29:35.945Z,102148.06
2023-05-08T14:32:02.742Z,102143.97
2023-05-08T14:34:29.440Z,102149.19
2023-05-08T14:36:56.297Z,102149.09
2023-05-08T14:39:23.031Z,102148.06
2023-05-08T14:42:08.887Z,102153.22
2023-05-08T14:44:36.183Z,102143.16
2023-05-08T14:47:02.817Z,102149.47
2023-05-08T14:49:37.344Z,102138.88
2023-05-08T14:52:06.134Z,102140.91
2023-05-08T14:54:32.915Z,102140.72
2023-05-08T14:56:59.752Z,102140.47
2023-05-08T14:59:26.373Z,102136.88
2023-05-08T15:01:53.013Z,102142.31
2023-05-08T15:04:22.734Z,102139.16
2023-05-08T15:06:49.339Z,102135.84
2023-05-08T15:09:16.721Z,102141.25
2023-05-08T15:11:43.854Z,102138.81
2023-05-08T15:14:10.484Z,102139.22
2023-05-08T15:16:37.178Z,102136.81
2023-05-08T15:19:03.827Z,102137.94
2023-05-08T15:21:30.963Z,102136.25
2023-05-08T15:24:00.558Z,102136.53
2023-05-08T15:26:27.088Z,102139.47
2023-05-08T15:28:53.630Z,102137.13
2023-05-08T15:31:20.870Z,102134.75
2023-05-08T15:33:48.249Z,102131.88
2023-05-08T15:36:15.478Z,102134.50
2023-05-08T15:38:42.975Z,102130.03
2023-05-08T15:41:15.049Z,102124.28
2023-05-08T15:43:43.162Z,102128.81
2023-05-08T15:46:09.970Z,102120.38
2023-05-08T15:48:36.641Z,102120.28
2023-05-08T15:51:03.351Z,102123.97
2023-05-08T15:53:29.951Z,102123.69
2023-05-08T15:55:57.129Z,102124.16
2023-05-08T15:58:24.119Z,102118.53
2023-05-08T16:00:50.781Z,102121.97
2023-05-08T16:03:18.767Z,102125.44
2023-05-08T16:05:45.646Z,102130.31
2023-05-08T16:08:13.019Z,102131.03
2023-05-08T16:10:40.707Z,102124.91
2023-05-08T16:13:08.067Z,102136.09
2023-05-08T16:15:34.748Z,102126.63
2023-05-08T16:18:01.513Z,102122.44
2023-05-08T16:20:28.137Z,102131.88
2023-05-08T16:22:55.927Z,102125.66
2023-05-08T16:25:22.601Z,102122.88
2023-05-08T16:27:49.440Z,102127.81
2023-05-08T16:30:16.437Z,102130.75
2023-05-08T16:32:45.553Z,102127.97
2023-05-08T16:35:12.579Z,102135.03
2023-05-08T16:37:40.287Z,102136.16
2023-05-08T16:40:08.574Z,102139.16
2023-05-08T16:42:35.332Z,102134.81
2023-05-08T16:45:02.686Z,102125.34
2023-05-08T16:47:29.302Z,102128.13
2023-05-08T16:49:55.979Z,102131.41
2023-05-08T16:52:22.616Z,102118.53
2023-05-08T16:54:49.418Z,102116.63
2023-05-08T16:57:15.998Z,102120.03
2023-05-08T16:59:42.521Z,102115.25
2023-05-08T17:02:09.237Z,102109.69
2023-05-08T17:04:36.300Z,102109.91
2023-05-08T17:07:04.977Z,102103.56
2023-05-08T17:09:32.636Z,102101.66
2023-05-08T17:12:01.833Z,102105.16
2023-05-08T17:14:28.393Z,102104.28
2023-05-08T17:16:54.957Z,102112.31
2023-05-08T17:19:21.532Z,102101.03
2023-05-08T17:21:48.140Z,102111.06
2023-05-08T17:24:14.694Z,102122.19
2023-05-08T17:26:41.351Z,102115.38
2023-05-08T17:29:07.879Z,102122.59
2023-05-08T17:31:34.426Z,102123.16
2023-05-08T17:34:01.228Z,102123.97
2023-05-08T17:36:27.907Z,102125.06
2023-05-08T17:38:55.075Z,102131.19
2023-05-08T17:41:22.284Z,102126.03
2023-05-08T17:43:48.951Z,102128.22
2023-05-08T17:46:15.738Z,102122.69
2023-05-08T17:48:43.665Z,102123.94
2023-05-08T17:51:14.113Z,102115.28
2023-05-08T17:53:40.801Z,102117.75
2023-05-08T17:56:07.919Z,102116.19
2023-05-08T17:58:34.509Z,102119.88
2023-05-08T18:01:01.108Z,102114.69
2023-05-08T18:03:27.659Z,102117.47
2023-05-08T18:05:54.276Z,102117.84
2023-05-08T18:08:20.918Z,102117.03
2023-05-08T18:10:47.433Z,102130.69
2023-05-08T18:13:14.041Z,102138.97
2023-05-08T18:15:40.947Z,102134.00
2023-05-08T18:18:07.922Z,102138.75
2023-05-08T18:20:34.778Z,102130.94
2023-05-08T18:23:01.417Z,102127.53
2023-05-08T18:25:28.049Z,102129.75
2023-05-08T18:27:54.702Z,102131.47
2023-05-08T18:30:21.349Z,102129.94
2023-05-08T18:32:48.112Z,102134.59
2023-05-08T18:35:14.925Z,102139.13
2023-05-08T18:37:41.648Z,102128.56
2023-05-08T18:40:08.804Z,102131.53
2023-05-08T18:42:35.898Z,102130.97
2023-05-08T18:45:05.589Z,102131.03
2023-05-08T18:47:32.610Z,102131.97
2023-05-08T18:49:59.928Z,102129.50
2023-05-08T18:52:29.076Z,102122.53
2023-05-08T18:54:55.745Z,102126.41
2023-05-08T18:57:22.290Z,102123.91
2023-05-08T18:59:49.167Z,102105.34
2023-05-08T19:02:15.823Z,102107.28
2023-05-08T19:04:42.436Z,102108.22
2023-05-08T19:07:09.149Z,102113.81
2023-05-08T19:09:35.787Z,102113.97
2023-05-08T19:12:02.325Z,102115.13
2023-05-08T19:14:28.865Z,102110.16
2023-05-08T19:16:57.803Z,102115.81
2023-05-08T19:19:25.099Z,102123.22
2023-05-08T19:21:51.687Z,102118.13
2023-05-08T19:24:20.747Z,102126.47
2023-05-08T19:26:47.578Z,102126.88
2023-05-08T19:29:14.276Z,102123.41
2023-05-08T19:31:41.036Z,102119.25
2023-05-08T19:34:07.667Z,102125.69
2023-05-08T19:36:36.861Z,102131.31
2023-05-08T19:39:04.580Z,102123.53
2023-05-08T19:41:31.138Z,102125.50
2023-05-08T19:43:57.710Z,102131.22
2023-05-08T19:46:24.399Z,102126.09
2023-05-08T19:48:50.958Z,102125.41
2023-05-08T19:51:17.637Z,102128.47
2023-05-08T19:53:44.235Z,102129.84
2023-05-08T19:56:10.771Z,102123.72
2023-05-08T19:58:37.298Z,102136.59
2023-05-08T20:01:03.911Z,102137.69
2023-05-08T20:03:30.620Z,102139.72
2023-05-08T20:05:57.323Z,102133.63
2023-05-08T20:08:23.972Z,102141.88
2023-05-08T20:10:50.504Z,102139.31
2023-05-08T20:13:17.664Z,102131.41
2023-05-08T20:15:44.445Z,102129.78
2023-05-08T20:18:11.039Z,102135.34
2023-05-08T20:20:37.602Z,102138.09
2023-05-08T20:23:04.490Z,102151.47
2023-05-08T20:25:31.172Z,102151.53
2023-05-08T20:27:57.758Z,102156.84
2023-05-08T20:30:24.361Z,102146.00
2023-05-08T20:32:50.973Z,102141.47
2023-05-08T20:35:17.567Z,102143.22
2023-05-08T20:37:48.180Z,102148.59
2023-05-08T20:40:15.563Z,102149.44
2023-05-08T20:42:42.318Z,102158.34
2023-05-08T20:45:10.029Z,102156.53
2023-05-08T20:47:36.853Z,102153.78
2023-05-08T20:50:04.377Z,102157.31
2023-05-08T20:52:32.229Z,102154.63
2023-05-08T20:54:59.575Z,102160.81
2023-05-08T20:57:26.374Z,102150.16
2023-05-08T20:59:52.966Z,102150.22
2023-05-08T21:02:19.516Z,102145.72
2023-05-08T21:04:46.193Z,102147.59
2023-05-08T21:07:12.946Z,102143.03
2023-05-08T21:09:39.483Z,102138.50
2023-05-08T21:12:06.193Z,102132.44
2023-05-08T21:14:32.854Z,102123.53
2023-05-08T21:17:02.266Z,102112.88
2023-05-08T21:19:31.946Z,102108.47
2023-05-08T21:21:58.535Z,102106.88
2023-05-08T21:24:25.759Z,102105.22
2023-05-08T21:26:52.902Z,102112.44
2023-05-08T21:29:19.951Z,102111.63
2023-05-08T21:31:46.587Z,102118.06
2023-05-08T21:34:13.465Z,102111.06
2023-05-08T21:36:42.822Z,102108.56
2023-05-08T21:39:09.393Z,102110.41
2023-05-08T21:41:35.921Z,102098.91
2023-05-08T21:44:02.487Z,102100.72
2023-05-08T21:46:29.182Z,102100.75
2023-05-08T21:48:55.857Z,102098.03
2023-05-08T21:51:22.468Z,102094.50
2023-05-08T21:53:51.915Z,102087.28
2023-05-08T21:56:18.531Z,102086.41
2023-05-08T21:58:45.364Z,102080.16
2023-05-08T22:01:11.904Z,102080.16
2023-05-08T22:03:38.962Z,102077.50
2023-05-08T22:06:05.881Z,102080.16
2023-05-08T22:08:32.565Z,102085.56
2023-05-08T22:10:59.114Z,102080.28
2023-05-08T22:13:25.899Z,102074.03
2023-05-08T22:15:52.554Z,102071.41
2023-05-08T22:18:19.086Z,102066.09
2023-05-08T22:20:45.624Z,102071.47
2023-05-08T22:23:12.153Z,102061.59
2023-05-08T22:25:38.687Z,102047.22
2023-05-08T22:28:05.241Z,102048.16
2023-05-08T22:30:31.912Z,102043.78
2023-05-08T22:32:59.269Z,102042.06
2023-05-08T22:35:27.481Z,102037.56
2023-05-08T22:37:55.093Z,102032.41
2023-05-08T22:40:22.247Z,102039.63
2023-05-08T22:42:51.477Z,102035.25
2023-05-08T22:45:18.657Z,102031.75
2023-05-08T22:47:45.878Z,102021.94
2023-05-08T22:50:12.577Z,102013.13
2023-05-08T22:52:39.614Z,102015.81
2023-05-08T22:55:07.001Z,102003.38
2023-05-08T22:57:33.661Z,101998.06
2023-05-08T23:00:00.363Z,101995.44
2023-05-08T23:02:35.133Z,101991.91
2023-05-08T23:05:02.267Z,101993.88
2023-05-08T23:07:29.639Z,101990.34
2023-05-08T23:09:56.313Z,101986.84
2023-05-08T23:12:23.121Z,101984.22
2023-05-08T23:14:49.715Z,101981.59
2023-05-08T23:17:16.306Z,101978.09
2023-05-08T23:19:42.977Z,101976.41
2023-05-08T23:22:10.088Z,101974.72
2023-05-08T23:24:37.387Z,101973.94
2023-05-08T23:27:04.038Z,101974.94
2023-05-08T23:29:30.639Z,101972.25
2023-05-08T23:31:57.145Z,101967.94
2023-05-08T23:34:23.718Z,101958.06
2023-05-08T23:36:50.399Z,101957.16
2023-05-08T23:39:16.986Z,101952.72
2023-05-08T23:41:43.562Z,101956.31
2023-05-08T23:44:10.322Z,101942.91
2023-05-08T23:46:36.934Z,101930.38
2023-05-08T23:49:05.337Z,101931.41
2023-05-08T23:51:32.204Z,101935.09
2023-05-08T23:53:58.831Z,101931.53
2023-05-08T23:56:26.812Z,101926.22
2023-05-08T23:58:53.414Z,101935.16
